Aripeka, Florida
Current Conditions -  °F | °C
As of 10:53 PM on Friday 24 Oct 2014 (Local Time) from KBKV Reporting Station
Clear Clear  
Wind Chill: 16°   Ceiling: Unl
Heat Index: 16°   Visibility: 10mi
Dew Point: 13°   Wind: 6mph
Humidity: 83%   Direction: 40°NE
Pressure: 30"   Gusts: NA
Location:  28.43°N, 82.66°W
Report Text: KBKV 250253Z AUTO 04005KT 10SM CLR 16/13 A3000 RMK AO2 SLP159 T01610133 51021
Loading
Personal Weather Stations






























Interactive Weather Map
Tropical Storm Tracking
New forecast layout! Learn more

10-Day Weather Forecast

Advertisements
Track Severe Weather on mobile